Antoine, Arkansas
Current Conditions -  °F | °C
As of 3:56 PM on Sunday 21 Dec 2014 (Local Time) from KADF Reporting Station
Clear Clear  
Wind Chill: 55°   Ceiling: Unl
Heat Index: 55°   Visibility: 10mi
Dew Point: 44°   Wind: 6mph
Humidity: 66%   Direction: 120°ESE
Pressure: 29.97"   Gusts: NA
Location:  34.04°N, 93.42°W
Report Text: KADF 212156Z AUTO 12005KT 10SM CLR 13/07 A2997 RMK AO2 T01270066 SLP164
Loading
Personal Weather Stations






























Interactive Weather Map New forecast layout! Learn more

10-Day Weather Forecast

Advertisements
Track Severe Weather on mobile